Accueil
METAR-TAF:

METAR-TAF

Aéroports :

Aéroport international de Bagdad

Bagdad, Irak

latitude: 33-15-45N, longitude: 44-14-04E, altitude: 35 m

Observation

Le bulletin a été fait il y a 17 minutes, à 11:00 UTC
Vent 12 kt de ouest, variant entre sud-ouest et ouest/nord-ouest
Température 44°C
Humidité 14%
Pression 1001 hPa
Visibilité 10 km ou plus
pas de nuages en-dessous de 1500 mètres et pas de cumulonimbus.

METAR: ORBI 201100Z 27012KT 230V290 CAVOK 44/11 Q1001 NOSIG

Heure: 14:17 (11:17 UTC)

Prévision

Le bulletin a été fait il y a 7 heures et 17 minutes, à 04:00 UTC
Prévision valable du 20 à 06 UTC au 21 à 06 UTC
Vent 9 kt de nord/nord-ouest
Visibilité 10 km ou plus
pas de nuages en-dessous de 1500 mètres et pas de cumulonimbus.

TAF: ORBI 200400Z 2006/2106 33009KT CAVOK

Observations et prévisions météorologiques de plus de 4000 aéroports (messages METAR et TAF).

Les stations disponibles sont représentées par des disques jaunes et rouges sur la carte.

Passer la souris dessus pour voir le nom de la station.

Cliquer dessus pour voir les observations et prévisions météorologiques.

Pour changer de carte: cliquez sur les boutons verts avec une croix noire pour zoomer, sur le bouton vert avec un tiret pour effectuer un zoom arrière, ou sur les flèches vertes pour les cartes adjacentes.


METAR-TAF: